createdAt,value
2023-11-07T00:01:29.076Z,21.40
2023-11-07T00:04:08.629Z,22.40
2023-11-07T00:06:35.695Z,24.00
2023-11-07T00:09:03.136Z,21.60
2023-11-07T00:11:30.097Z,20.90
2023-11-07T00:13:57.030Z,20.60
2023-11-07T00:16:26.254Z,22.50
2023-11-07T00:18:53.176Z,25.70
2023-11-07T00:21:22.991Z,24.80
2023-11-07T00:23:49.969Z,21.60
2023-11-07T00:26:18.964Z,27.30
2023-11-07T00:28:47.927Z,25.50
2023-11-07T00:31:14.853Z,26.30
2023-11-07T00:33:41.707Z,32.10
2023-11-07T00:36:12.052Z,34.70
2023-11-07T00:38:42.243Z,40.10
2023-11-07T00:41:09.323Z,41.80
2023-11-07T00:43:36.229Z,39.20
2023-11-07T00:46:04.180Z,32.30
2023-11-07T00:48:31.227Z,36.30
2023-11-07T00:51:00.444Z,30.20
2023-11-07T00:53:27.916Z,31.80
2023-11-07T00:55:54.849Z,28.10
2023-11-07T00:58:21.749Z,34.50
2023-11-07T01:00:49.209Z,29.80
2023-11-07T01:03:16.204Z,33.20
2023-11-07T01:05:43.259Z,36.40
2023-11-07T01:08:10.217Z,35.50
2023-11-07T01:10:37.050Z,35.50
2023-11-07T01:13:04.297Z,39.20
2023-11-07T01:15:31.165Z,35.00
2023-11-07T01:17:58.310Z,33.80
2023-11-07T01:20:25.415Z,27.30
2023-11-07T01:22:52.423Z,24.60
2023-11-07T01:25:19.428Z,24.80
2023-11-07T01:27:46.318Z,25.40
2023-11-07T01:30:14.017Z,25.40
2023-11-07T01:32:43.021Z,23.00
2023-11-07T01:35:10.201Z,20.80
2023-11-07T01:37:37.182Z,20.20
2023-11-07T01:40:04.906Z,24.30
2023-11-07T01:42:32.005Z,20.90
2023-11-07T01:45:00.333Z,19.40
2023-11-07T01:47:27.292Z,18.70
2023-11-07T01:49:54.307Z,19.70
2023-11-07T01:52:21.858Z,16.90
2023-11-07T01:54:52.741Z,18.90
2023-11-07T01:57:20.368Z,18.60
2023-11-07T01:59:48.790Z,21.80
2023-11-07T02:02:18.704Z,18.10
2023-11-07T02:04:47.214Z,19.10
2023-11-07T02:07:14.366Z,14.00
2023-11-07T02:09:45.720Z,15.60
2023-11-07T02:12:13.337Z,18.70
2023-11-07T02:14:40.448Z,20.60
2023-11-07T02:17:07.587Z,20.80
2023-11-07T02:19:34.757Z,15.90
2023-11-07T02:22:02.207Z,15.30
2023-11-07T02:24:29.733Z,20.70
2023-11-07T02:26:57.863Z,13.60
2023-11-07T02:29:25.355Z,14.60
2023-11-07T02:31:52.429Z,18.10
2023-11-07T02:34:19.316Z,13.00
2023-11-07T02:36:46.825Z,13.90
2023-11-07T02:39:13.765Z,12.90
2023-11-07T02:41:41.057Z,17.30
2023-11-07T02:44:09.721Z,13.50
2023-11-07T02:46:42.369Z,16.60
2023-11-07T02:49:10.904Z,17.30
2023-11-07T02:51:39.047Z,15.20
2023-11-07T02:54:06.307Z,16.40
2023-11-07T02:56:34.097Z,12.20
2023-11-07T02:59:00.999Z,14.70
2023-11-07T03:01:28.023Z,16.30
2023-11-07T03:03:56.915Z,14.30
2023-11-07T03:06:23.942Z,10.80
2023-11-07T03:08:50.940Z,12.50
2023-11-07T03:11:17.847Z,13.80
2023-11-07T03:13:45.844Z,12.30
2023-11-07T03:16:12.621Z,12.20
2023-11-07T03:18:39.602Z,10.60
2023-11-07T03:21:09.113Z,9.20
2023-11-07T03:23:36.428Z,12.00
2023-11-07T03:26:04.883Z,8.10
2023-11-07T03:28:32.342Z,11.70
2023-11-07T03:30:59.214Z,8.70
2023-11-07T03:33:26.152Z,10.70
2023-11-07T03:35:53.712Z,7.70
2023-11-07T03:38:20.522Z,9.30
2023-11-07T03:40:47.516Z,7.00
2023-11-07T03:43:16.620Z,11.20
2023-11-07T03:45:43.808Z,15.20
2023-11-07T03:48:10.873Z,11.60
2023-11-07T03:50:37.876Z,11.40
2023-11-07T03:53:04.844Z,14.50
2023-11-07T03:55:32.437Z,16.00
2023-11-07T03:57:59.481Z,15.70
2023-11-07T04:00:26.586Z,21.80
2023-11-07T04:02:53.527Z,19.90
2023-11-07T04:05:21.034Z,18.70
2023-11-07T04:07:47.949Z,23.20
2023-11-07T04:10:14.854Z,16.60
2023-11-07T04:12:41.782Z,19.70
2023-11-07T04:15:09.695Z,19.10
2023-11-07T04:17:36.968Z,20.30
2023-11-07T04:20:04.607Z,17.40
2023-11-07T04:22:31.692Z,21.30
2023-11-07T04:24:58.478Z,21.60
2023-11-07T04:27:25.457Z,19.70
2023-11-07T04:29:52.298Z,14.40
2023-11-07T04:32:19.407Z,13.30
2023-11-07T04:34:48.164Z,13.80
2023-11-07T04:37:17.069Z,16.90
2023-11-07T04:39:43.956Z,14.50
2023-11-07T04:42:10.924Z,15.90
2023-11-07T04:44:37.969Z,14.70
2023-11-07T04:47:06.066Z,11.40
2023-11-07T04:49:33.293Z,11.10
2023-11-07T04:52:02.546Z,12.00
2023-11-07T04:54:30.208Z,10.00
2023-11-07T04:56:58.122Z,14.30
2023-11-07T04:59:25.071Z,19.80
2023-11-07T05:01:53.382Z,10.20
2023-11-07T05:04:20.502Z,10.70
2023-11-07T05:06:47.558Z,14.50
2023-11-07T05:09:14.750Z,8.50
2023-11-07T05:11:42.038Z,12.20
2023-11-07T05:14:09.541Z,10.50
2023-11-07T05:16:39.547Z,8.60
2023-11-07T05:19:09.576Z,13.90
2023-11-07T05:21:37.134Z,11.60
2023-11-07T05:24:05.098Z,10.20
2023-11-07T05:26:32.210Z,9.30
2023-11-07T05:29:00.114Z,8.00
2023-11-07T05:31:27.227Z,6.40
2023-11-07T05:33:54.273Z,4.70
2023-11-07T05:36:21.272Z,6.40
2023-11-07T05:38:48.180Z,5.30
2023-11-07T05:41:15.306Z,7.90
2023-11-07T05:43:43.478Z,5.70
2023-11-07T05:46:10.386Z,8.30
2023-11-07T05:48:37.919Z,7.20
2023-11-07T05:51:05.576Z,4.80
2023-11-07T05:53:32.496Z,4.90
2023-11-07T05:55:59.940Z,6.30
2023-11-07T05:58:30.484Z,10.00
2023-11-07T06:00:57.844Z,7.50
2023-11-07T06:03:24.815Z,6.40
2023-11-07T06:05:53.987Z,7.80
2023-11-07T06:08:21.080Z,7.00
2023-11-07T06:10:48.321Z,8.90
2023-11-07T06:13:15.769Z,8.30
2023-11-07T06:15:42.657Z,9.80
2023-11-07T06:18:09.983Z,7.60
2023-11-07T06:20:36.989Z,10.60
2023-11-07T06:23:04.004Z,9.00
2023-11-07T06:25:30.987Z,8.10
2023-11-07T06:27:58.324Z,9.50
2023-11-07T06:30:29.999Z,8.00
2023-11-07T06:32:58.135Z,7.90
2023-11-07T06:35:24.970Z,10.60
2023-11-07T06:37:51.748Z,12.70
2023-11-07T06:40:19.711Z,9.40
2023-11-07T06:42:47.712Z,10.00
2023-11-07T06:45:15.402Z,14.50
2023-11-07T06:47:44.299Z,13.30
2023-11-07T06:50:13.624Z,11.00
2023-11-07T06:52:42.940Z,13.30
2023-11-07T06:55:12.857Z,10.40
2023-11-07T06:57:40.449Z,12.00
2023-11-07T07:00:09.500Z,15.30
2023-11-07T07:02:37.580Z,9.10
2023-11-07T07:05:04.820Z,11.20
2023-11-07T07:07:31.892Z,11.10
2023-11-07T07:10:00.946Z,10.30
2023-11-07T07:12:28.089Z,9.40
2023-11-07T07:14:55.111Z,8.20
2023-11-07T07:17:23.164Z,15.60
2023-11-07T07:19:50.193Z,7.50
2023-11-07T07:22:27.987Z,12.30
2023-11-07T07:24:55.854Z,7.70
2023-11-07T07:27:27.439Z,8.30
2023-11-07T07:29:54.659Z,9.60
2023-11-07T07:32:21.640Z,11.50
2023-11-07T07:34:51.477Z,9.90
2023-11-07T07:37:21.367Z,10.80
2023-11-07T07:39:48.228Z,15.00
2023-11-07T07:42:17.725Z,16.70
2023-11-07T07:44:46.101Z,16.20
2023-11-07T07:47:15.865Z,13.80
2023-11-07T07:49:42.834Z,11.60
2023-11-07T07:52:10.057Z,9.30
2023-11-07T07:55:00.035Z,8.30
2023-11-07T07:57:24.959Z,10.00
2023-11-07T07:59:51.913Z,8.10
2023-11-07T08:02:20.164Z,7.50
2023-11-07T08:04:48.050Z,8.40
2023-11-07T08:07:17.977Z,13.60
2023-11-07T08:09:44.987Z,11.40
2023-11-07T08:12:12.701Z,17.00
2023-11-07T08:14:41.363Z,8.30
2023-11-07T08:17:09.962Z,9.90
2023-11-07T08:19:37.093Z,52.60
2023-11-07T08:22:07.429Z,16.10
2023-11-07T08:24:34.358Z,36.90
2023-11-07T08:27:01.777Z,15.30
2023-11-07T08:29:28.606Z,20.10
2023-11-07T08:31:55.525Z,16.50
2023-11-07T08:34:23.081Z,13.40
2023-11-07T08:36:56.868Z,11.60
2023-11-07T08:39:34.365Z,11.30
2023-11-07T08:42:01.296Z,10.50
2023-11-07T08:44:28.209Z,7.90
2023-11-07T08:46:55.387Z,8.70
2023-11-07T08:49:22.324Z,8.10
2023-11-07T08:51:52.069Z,6.30
2023-11-07T08:54:19.083Z,9.10
2023-11-07T08:56:49.725Z,14.10
2023-11-07T08:59:18.256Z,13.30
2023-11-07T09:01:47.626Z,15.90
2023-11-07T09:04:15.138Z,16.50
2023-11-07T09:06:42.117Z,13.60
2023-11-07T09:09:14.834Z,12.00
2023-11-07T09:11:42.516Z,13.40
2023-11-07T09:14:09.866Z,13.40
2023-11-07T09:16:36.793Z,16.20
2023-11-07T09:19:05.214Z,16.40
2023-11-07T09:21:32.420Z,15.60
2023-11-07T09:23:59.275Z,12.80
2023-11-07T09:26:26.145Z,16.60
2023-11-07T09:28:53.085Z,14.90
2023-11-07T09:31:20.038Z,12.80
2023-11-07T09:33:47.352Z,11.90
2023-11-07T09:36:15.894Z,11.40
2023-11-07T09:38:49.603Z,8.80
2023-11-07T09:41:20.039Z,11.70
2023-11-07T09:43:47.798Z,10.60
2023-11-07T09:46:15.193Z,8.80
2023-11-07T09:48:42.507Z,9.80
2023-11-07T09:51:10.544Z,10.40
2023-11-07T09:53:39.628Z,10.50
2023-11-07T09:56:11.168Z,13.70
2023-11-07T09:58:45.819Z,8.80
2023-11-07T10:03:43.749Z,5.50
2023-11-07T10:06:12.849Z,8.00
2023-11-07T10:08:43.348Z,10.70
2023-11-07T10:11:13.092Z,14.20
2023-11-07T10:13:59.710Z,12.70
2023-11-07T10:16:38.108Z,12.80
2023-11-07T10:19:05.527Z,13.20
2023-11-07T10:21:33.797Z,12.60
2023-11-07T10:24:01.380Z,10.10
2023-11-07T10:26:28.680Z,16.70
2023-11-07T10:29:18.192Z,15.00
2023-11-07T10:32:03.290Z,11.20
2023-11-07T10:34:31.338Z,12.10
2023-11-07T10:37:01.924Z,12.90
2023-11-07T10:39:30.638Z,9.40
2023-11-07T10:41:58.045Z,14.00
2023-11-07T10:44:28.758Z,10.20
2023-11-07T10:46:57.927Z,9.30
2023-11-07T10:49:25.725Z,10.80
2023-11-07T10:51:55.472Z,10.60
2023-11-07T10:54:22.730Z,11.10
2023-11-07T10:56:53.620Z,15.00
2023-11-07T10:59:26.283Z,11.90
2023-11-07T11:01:54.742Z,10.00
2023-11-07T11:04:26.042Z,8.80
2023-11-07T11:06:58.468Z,12.40
2023-11-07T11:09:27.986Z,14.60
2023-11-07T11:12:00.138Z,13.00
2023-11-07T11:14:28.111Z,11.10
2023-11-07T11:17:21.841Z,12.20
2023-11-07T11:20:23.039Z,8.50
2023-11-07T11:23:05.771Z,6.10
2023-11-07T11:25:54.159Z,8.30
2023-11-07T11:28:37.496Z,4.60
2023-11-07T11:31:05.271Z,8.60
2023-11-07T11:33:32.322Z,8.80
2023-11-07T11:35:59.473Z,11.20
2023-11-07T11:38:40.190Z,7.80
2023-11-07T11:41:10.632Z,8.00
2023-11-07T11:44:15.997Z,8.70
2023-11-07T11:46:44.430Z,6.80
2023-11-07T11:49:17.001Z,6.10
2023-11-07T11:51:47.171Z,6.20
2023-11-07T11:54:16.862Z,9.80
2023-11-07T11:56:50.123Z,5.50
2023-11-07T11:59:28.936Z,6.70
2023-11-07T12:02:03.132Z,8.40
2023-11-07T12:04:31.954Z,9.60
2023-11-07T12:07:10.861Z,11.20
2023-11-07T12:09:45.205Z,6.70
2023-11-07T12:12:16.103Z,7.30
2023-11-07T12:14:57.170Z,4.70
2023-11-07T12:17:29.353Z,6.10
2023-11-07T12:20:06.663Z,5.30
2023-11-07T12:22:34.689Z,5.50
2023-11-07T12:25:18.684Z,7.90
2023-11-07T12:28:06.302Z,4.50
2023-11-07T12:30:35.051Z,5.30
2023-11-07T12:33:11.274Z,7.30
2023-11-07T12:35:39.404Z,4.60
2023-11-07T12:38:08.201Z,7.10
2023-11-07T12:40:36.869Z,4.40
2023-11-07T12:43:07.383Z,6.30
2023-11-07T12:45:39.254Z,4.70
2023-11-07T12:48:10.317Z,8.00
2023-11-07T12:50:47.233Z,6.80
2023-11-07T12:53:18.494Z,4.00
2023-11-07T12:55:52.584Z,6.10
2023-11-07T12:58:32.421Z,7.20
2023-11-07T13:01:01.456Z,6.60
2023-11-07T13:03:32.208Z,4.50
2023-11-07T13:06:15.403Z,5.30
2023-11-07T13:08:44.963Z,4.30
2023-11-07T13:11:13.085Z,6.00
2023-11-07T13:13:41.396Z,7.60
2023-11-07T13:16:08.593Z,6.90
2023-11-07T13:18:37.650Z,6.90
2023-11-07T13:21:05.986Z,7.20
2023-11-07T13:23:33.070Z,4.70
2023-11-07T13:26:00.059Z,3.50
2023-11-07T13:28:29.076Z,6.40
2023-11-07T13:30:56.307Z,6.80
2023-11-07T13:33:23.303Z,5.70
2023-11-07T13:35:50.382Z,5.50
2023-11-07T13:38:17.734Z,8.80
2023-11-07T13:40:45.806Z,7.90
2023-11-07T13:43:13.054Z,8.80
2023-11-07T13:45:40.116Z,6.40
2023-11-07T13:48:07.349Z,7.50
2023-11-07T13:50:34.354Z,5.70
2023-11-07T13:53:01.400Z,7.20
2023-11-07T13:55:28.605Z,7.50
2023-11-07T13:57:55.842Z,15.90
2023-11-07T14:00:23.587Z,13.30
2023-11-07T14:02:53.566Z,16.80
2023-11-07T14:05:22.010Z,11.00
2023-11-07T14:07:50.988Z,10.10
2023-11-07T14:10:22.129Z,11.20
2023-11-07T14:12:52.968Z,10.50
2023-11-07T14:15:28.646Z,9.50
2023-11-07T14:17:55.660Z,11.50
2023-11-07T14:20:24.149Z,11.20
2023-11-07T14:22:54.216Z,10.40
2023-11-07T14:25:21.185Z,7.00
2023-11-07T14:27:48.239Z,11.60
2023-11-07T14:30:27.619Z,12.40
2023-11-07T14:33:04.547Z,11.00
2023-11-07T14:35:31.552Z,14.10
2023-11-07T14:37:59.009Z,17.00
2023-11-07T14:40:26.856Z,14.70
2023-11-07T14:42:55.264Z,14.10
2023-11-07T14:45:25.075Z,12.40
2023-11-07T14:47:55.108Z,11.80
2023-11-07T14:50:23.028Z,17.70
2023-11-07T14:52:49.986Z,19.50
2023-11-07T14:55:16.973Z,15.20
2023-11-07T14:57:44.559Z,16.20
2023-11-07T15:00:25.016Z,16.40
2023-11-07T15:02:53.620Z,25.30
2023-11-07T15:05:20.659Z,43.80
2023-11-07T15:07:47.601Z,67.70
2023-11-07T15:10:14.625Z,43.20
2023-11-07T15:12:41.609Z,40.60
2023-11-07T15:15:10.913Z,38.00
2023-11-07T15:17:39.196Z,39.40
2023-11-07T15:20:10.398Z,36.50
2023-11-07T15:22:37.576Z,22.50
2023-11-07T15:25:12.274Z,16.10
2023-11-07T15:27:44.312Z,17.40
2023-11-07T15:30:16.862Z,22.60
2023-11-07T15:32:55.321Z,16.50
2023-11-07T15:35:22.900Z,14.50
2023-11-07T15:37:49.807Z,18.10
2023-11-07T15:40:20.374Z,19.50
2023-11-07T15:42:49.028Z,24.80
2023-11-07T15:45:18.882Z,15.80
2023-11-07T15:47:46.651Z,18.10
2023-11-07T15:50:15.667Z,19.30
2023-11-07T15:53:00.088Z,20.30
2023-11-07T15:55:36.119Z,23.90
2023-11-07T15:58:03.161Z,27.20
2023-11-07T16:00:30.432Z,31.30
2023-11-07T16:02:57.777Z,37.70
2023-11-07T16:05:28.322Z,39.20
2023-11-07T16:07:55.416Z,35.50
2023-11-07T16:10:22.407Z,38.70
2023-11-07T16:12:51.396Z,67.40
2023-11-07T16:15:18.636Z,187.90
2023-11-07T16:17:49.422Z,170.50
2023-11-07T16:20:21.312Z,78.90
2023-11-07T16:22:49.251Z,79.30
2023-11-07T16:25:16.473Z,128.00
2023-11-07T16:27:43.624Z,112.60
2023-11-07T16:30:11.541Z,89.70
2023-11-07T16:32:38.752Z,103.00
2023-11-07T16:35:05.963Z,91.40
2023-11-07T16:37:36.335Z,93.90
2023-11-07T16:40:08.897Z,98.30
2023-11-07T16:42:36.635Z,86.40
2023-11-07T16:45:08.885Z,91.20
2023-11-07T16:47:36.896Z,104.10
2023-11-07T16:50:04.119Z,182.90
2023-11-07T16:52:31.073Z,173.00
2023-11-07T16:54:58.009Z,218.40
2023-11-07T16:57:25.014Z,340.80
2023-11-07T16:59:52.704Z,344.00
2023-11-07T17:02:20.195Z,258.70
2023-11-07T17:04:47.385Z,161.40
2023-11-07T17:07:14.849Z,120.10
2023-11-07T17:09:42.119Z,115.40
2023-11-07T17:12:09.107Z,149.00
2023-11-07T17:14:37.543Z,157.90
2023-11-07T17:17:05.529Z,168.60
2023-11-07T17:19:32.549Z,177.10
2023-11-07T17:21:59.529Z,158.30
2023-11-07T17:24:27.890Z,163.10
2023-11-07T17:26:55.389Z,147.10
2023-11-07T17:29:22.683Z,150.90
2023-11-07T17:31:49.871Z,157.40
2023-11-07T17:34:17.209Z,140.30
2023-11-07T17:36:46.427Z,125.00
2023-11-07T17:39:17.383Z,113.10
2023-11-07T17:41:45.558Z,106.10
2023-11-07T17:44:14.766Z,97.70
2023-11-07T17:46:43.010Z,100.70
2023-11-07T17:49:10.834Z,107.80
2023-11-07T17:51:42.745Z,116.20
2023-11-07T17:54:11.618Z,125.10
2023-11-07T17:56:41.164Z,134.10
2023-11-07T17:59:11.631Z,152.40
2023-11-07T18:01:39.879Z,115.70
2023-11-07T18:04:07.198Z,82.60
2023-11-07T18:06:34.548Z,88.40
2023-11-07T18:09:01.676Z,82.90
2023-11-07T18:11:33.749Z,75.70
2023-11-07T18:14:00.934Z,71.00
2023-11-07T18:16:28.116Z,80.40
2023-11-07T18:18:58.383Z,87.70
2023-11-07T18:21:27.912Z,70.10
2023-11-07T18:23:55.802Z,59.30
2023-11-07T18:26:23.475Z,67.40
2023-11-07T18:28:51.050Z,83.20
2023-11-07T18:31:18.281Z,95.20
2023-11-07T18:33:48.684Z,102.90
2023-11-07T18:36:15.751Z,101.90
2023-11-07T18:38:42.812Z,156.00
2023-11-07T18:41:09.697Z,136.50
2023-11-07T18:43:37.665Z,131.00
2023-11-07T18:46:05.650Z,162.10
2023-11-07T18:48:33.675Z,131.30
2023-11-07T18:51:00.794Z,84.90
2023-11-07T18:53:40.676Z,80.20
2023-11-07T18:56:12.946Z,63.60
2023-11-07T18:58:39.989Z,66.00
2023-11-07T19:01:08.608Z,64.40
2023-11-07T19:03:35.868Z,79.00
2023-11-07T19:06:03.595Z,69.70
2023-11-07T19:08:31.477Z,67.30
2023-11-07T19:11:00.053Z,60.10
2023-11-07T19:13:27.059Z,64.20
2023-11-07T19:15:54.961Z,57.40
2023-11-07T19:18:23.052Z,66.60
2023-11-07T19:20:50.095Z,72.90
2023-11-07T19:23:19.505Z,68.50
2023-11-07T19:25:47.143Z,56.10
2023-11-07T19:28:14.155Z,55.30
2023-11-07T19:30:41.173Z,56.70
2023-11-07T19:33:09.468Z,59.70
2023-11-07T19:35:36.719Z,58.20
2023-11-07T19:38:03.603Z,54.30
2023-11-07T19:40:32.008Z,57.30
2023-11-07T19:42:59.473Z,53.50
2023-11-07T19:45:26.725Z,57.10
2023-11-07T19:47:53.652Z,63.80
2023-11-07T19:50:20.944Z,62.50
2023-11-07T19:52:54.301Z,60.60
2023-11-07T19:55:29.831Z,64.10
2023-11-07T19:57:56.820Z,61.90
2023-11-07T20:00:27.238Z,59.80
2023-11-07T20:02:54.566Z,62.80
2023-11-07T20:05:21.913Z,67.90
2023-11-07T20:07:55.933Z,65.20
2023-11-07T20:10:25.289Z,61.80
2023-11-07T20:12:52.836Z,65.80
2023-11-07T20:15:20.007Z,78.90
2023-11-07T20:17:47.351Z,73.30
2023-11-07T20:20:15.190Z,75.20
2023-11-07T20:22:44.172Z,83.70
2023-11-07T20:25:11.478Z,73.00
2023-11-07T20:27:39.272Z,74.10
2023-11-07T20:30:08.342Z,85.70
2023-11-07T20:32:35.314Z,76.40
2023-11-07T20:35:03.058Z,79.00
2023-11-07T20:37:30.085Z,84.60
2023-11-07T20:39:57.314Z,113.20
2023-11-07T20:42:25.809Z,106.20
2023-11-07T20:45:00.564Z,78.80
2023-11-07T20:47:31.563Z,82.20
2023-11-07T20:50:06.576Z,82.80
2023-11-07T20:52:35.994Z,77.70
2023-11-07T20:55:03.178Z,82.80
2023-11-07T20:57:33.211Z,78.20
2023-11-07T21:00:00.227Z,78.60
2023-11-07T21:02:28.098Z,78.40
2023-11-07T21:04:55.345Z,78.00
2023-11-07T21:07:22.954Z,89.10
2023-11-07T21:09:51.239Z,80.50
2023-11-07T21:12:19.572Z,86.60
2023-11-07T21:14:46.612Z,94.60
2023-11-07T21:17:13.612Z,96.10
2023-11-07T21:19:41.371Z,103.50
2023-11-07T21:22:08.471Z,96.10
2023-11-07T21:24:35.607Z,94.90
2023-11-07T21:27:04.204Z,93.90
2023-11-07T21:29:33.423Z,89.80
2023-11-07T21:32:00.405Z,82.80
2023-11-07T21:34:27.741Z,67.90
2023-11-07T21:36:55.248Z,63.00
2023-11-07T21:39:23.634Z,63.20
2023-11-07T21:41:51.371Z,68.80
2023-11-07T21:44:22.178Z,68.10
2023-11-07T21:46:49.127Z,71.20
2023-11-07T21:49:16.349Z,70.30
2023-11-07T21:51:43.972Z,78.60
2023-11-07T21:54:11.778Z,83.70
2023-11-07T21:56:39.520Z,82.80
2023-11-07T21:59:09.493Z,74.10
2023-11-07T22:01:36.486Z,77.30
2023-11-07T22:04:05.801Z,74.70
2023-11-07T22:06:33.117Z,70.60
2023-11-07T22:09:00.272Z,69.90
2023-11-07T22:11:27.215Z,69.80
2023-11-07T22:13:56.987Z,70.30
2023-11-07T22:16:23.799Z,73.20
2023-11-07T22:18:50.579Z,71.40
2023-11-07T22:21:18.425Z,67.70
2023-11-07T22:23:45.708Z,71.40
2023-11-07T22:26:13.127Z,69.60
2023-11-07T22:28:40.586Z,65.00
2023-11-07T22:31:07.606Z,73.50
2023-11-07T22:33:34.600Z,66.70
2023-11-07T22:36:01.691Z,66.00
2023-11-07T22:38:28.522Z,65.50
2023-11-07T22:40:55.741Z,67.10
2023-11-07T22:43:22.768Z,64.00
2023-11-07T22:45:49.833Z,67.00
2023-11-07T22:48:19.316Z,61.00
2023-11-07T22:50:46.780Z,69.30
2023-11-07T22:53:14.387Z,68.20
2023-11-07T22:55:41.392Z,68.90
2023-11-07T22:58:08.737Z,67.20
2023-11-07T23:00:38.864Z,65.90
2023-11-07T23:03:14.126Z,63.90
2023-11-07T23:05:42.440Z,67.50
2023-11-07T23:08:10.284Z,65.30
2023-11-07T23:10:38.352Z,76.50
2023-11-07T23:13:08.775Z,67.80
2023-11-07T23:15:39.509Z,63.70
2023-11-07T23:18:07.792Z,61.40
2023-11-07T23:20:35.849Z,62.40
2023-11-07T23:23:03.567Z,63.30
2023-11-07T23:25:30.544Z,62.50
2023-11-07T23:27:57.427Z,64.40
2023-11-07T23:30:24.317Z,65.00
2023-11-07T23:32:51.678Z,60.00
2023-11-07T23:35:18.947Z,64.10
2023-11-07T23:37:46.030Z,63.70
2023-11-07T23:40:13.343Z,57.20
2023-11-07T23:42:43.814Z,55.30
2023-11-07T23:45:11.134Z,51.60
2023-11-07T23:47:40.351Z,52.20
2023-11-07T23:50:08.065Z,50.00
2023-11-07T23:52:35.672Z,54.60
2023-11-07T23:55:03.592Z,53.90
2023-11-07T23:57:30.895Z,56.00
2023-11-07T23:59:57.831Z,54.00
